createdAt,value
2017-12-11T00:01:49.528Z,3.83
2017-12-11T00:04:17.701Z,2.80
2017-12-11T00:06:45.885Z,2.58
2017-12-11T00:09:14.169Z,2.35
2017-12-11T00:11:42.341Z,3.50
2017-12-11T00:14:10.493Z,2.90
2017-12-11T00:16:38.800Z,2.60
2017-12-11T00:19:06.993Z,2.50
2017-12-11T00:21:35.269Z,2.85
2017-12-11T00:24:04.155Z,4.10
2017-12-11T00:26:33.178Z,3.17
2017-12-11T00:29:01.362Z,2.70
2017-12-11T00:31:30.443Z,2.28
2017-12-11T00:33:58.827Z,2.22
2017-12-11T00:36:27.012Z,2.40
2017-12-11T00:38:56.972Z,1.92
2017-12-11T00:41:25.279Z,2.37
2017-12-11T00:43:57.360Z,1.95
2017-12-11T00:46:25.643Z,2.60
2017-12-11T00:48:53.841Z,2.05
2017-12-11T00:51:27.166Z,2.03
2017-12-11T00:53:55.440Z,1.90
2017-12-11T00:56:23.831Z,1.98
2017-12-11T00:58:52.078Z,1.55
2017-12-11T01:01:27.108Z,1.42
2017-12-11T01:04:00.871Z,1.50
2017-12-11T01:06:29.229Z,1.45
2017-12-11T01:09:12.607Z,1.90
2017-12-11T01:11:44.760Z,1.75
2017-12-11T01:14:13.792Z,1.60
2017-12-11T01:16:45.630Z,1.67
2017-12-11T01:19:18.687Z,2.03
2017-12-11T01:21:47.798Z,1.83
2017-12-11T01:24:16.818Z,1.92
2017-12-11T01:26:45.063Z,1.60
2017-12-11T01:29:14.334Z,1.95
2017-12-11T01:31:42.645Z,1.73
2017-12-11T01:34:11.013Z,1.50
2017-12-11T01:36:44.270Z,1.58
2017-12-11T01:39:13.343Z,1.50
2017-12-11T01:41:41.577Z,1.40
2017-12-11T01:44:09.866Z,1.60
2017-12-11T01:46:48.683Z,1.60
2017-12-11T01:49:16.912Z,1.67
2017-12-11T01:51:47.859Z,1.67
2017-12-11T01:54:16.040Z,1.30
2017-12-11T01:56:44.339Z,1.85
2017-12-11T01:59:12.605Z,1.40
2017-12-11T02:01:40.885Z,1.45
2017-12-11T02:04:09.158Z,1.30
2017-12-11T02:06:39.745Z,1.40
2017-12-11T02:09:11.742Z,1.40
2017-12-11T02:11:39.973Z,1.40
2017-12-11T02:14:08.198Z,1.85
2017-12-11T02:16:38.193Z,1.10
2017-12-11T02:19:10.023Z,1.45
2017-12-11T02:21:38.302Z,1.30
2017-12-11T02:24:06.464Z,1.98
2017-12-11T02:26:34.749Z,2.00
2017-12-11T02:29:03.024Z,1.45
2017-12-11T02:31:32.052Z,1.62
2017-12-11T02:34:01.019Z,1.45
2017-12-11T02:36:29.317Z,1.58
2017-12-11T02:38:58.317Z,1.60
2017-12-11T02:41:27.938Z,1.62
2017-12-11T02:43:56.253Z,1.70
2017-12-11T02:46:24.500Z,1.52
2017-12-11T02:48:52.747Z,1.60
2017-12-11T02:51:22.092Z,1.70
2017-12-11T02:53:50.409Z,1.60
2017-12-11T02:56:18.606Z,1.58
2017-12-11T02:58:48.464Z,1.60
2017-12-11T03:01:16.742Z,1.85
2017-12-11T03:03:45.969Z,3.05
2017-12-11T03:06:14.158Z,1.52
2017-12-11T03:08:43.171Z,1.50
2017-12-11T03:11:11.436Z,1.60
2017-12-11T03:13:40.886Z,1.40
2017-12-11T03:16:09.081Z,1.40
2017-12-11T03:18:37.277Z,1.58
2017-12-11T03:21:05.565Z,1.50
2017-12-11T03:23:34.572Z,1.60
2017-12-11T03:26:02.778Z,1.60
2017-12-11T03:28:31.135Z,2.83
2017-12-11T03:31:00.399Z,1.50
2017-12-11T03:33:28.615Z,1.58
2017-12-11T03:35:57.453Z,1.30
2017-12-11T03:38:25.657Z,1.60
2017-12-11T03:40:53.974Z,1.55
2017-12-11T03:43:22.243Z,1.67
2017-12-11T03:45:50.539Z,1.77
2017-12-11T03:48:18.803Z,1.62
2017-12-11T03:50:46.957Z,1.55
2017-12-11T03:53:15.129Z,1.37
2017-12-11T03:55:44.106Z,1.50
2017-12-11T03:58:13.087Z,1.45
2017-12-11T04:00:42.162Z,1.23
2017-12-11T04:03:10.410Z,1.40
2017-12-11T04:05:38.548Z,1.40
2017-12-11T04:08:06.768Z,1.67
2017-12-11T04:10:34.917Z,1.60
2017-12-11T04:13:03.211Z,1.30
2017-12-11T04:15:31.443Z,3.50
2017-12-11T04:17:59.669Z,1.87
2017-12-11T04:20:27.910Z,1.80
2017-12-11T04:22:56.105Z,1.40
2017-12-11T04:25:24.295Z,1.70
2017-12-11T04:27:52.462Z,1.65
2017-12-11T04:30:20.637Z,1.87
2017-12-11T04:32:48.806Z,4.90
2017-12-11T04:35:16.981Z,1.87
2017-12-11T04:37:45.209Z,1.83
2017-12-11T04:40:13.426Z,1.85
2017-12-11T04:42:41.643Z,1.90
2017-12-11T04:45:09.814Z,1.50
2017-12-11T04:47:38.027Z,2.70
2017-12-11T04:50:06.976Z,1.70
2017-12-11T04:52:35.210Z,2.10
2017-12-11T04:55:04.212Z,4.40
2017-12-11T04:57:32.421Z,2.40
2017-12-11T05:00:00.666Z,1.95
2017-12-11T05:02:29.574Z,1.77
2017-12-11T05:04:57.914Z,2.12
2017-12-11T05:07:26.305Z,2.33
2017-12-11T05:09:54.606Z,2.67
2017-12-11T05:12:22.957Z,3.15
2017-12-11T05:14:52.036Z,3.87
2017-12-11T05:17:20.412Z,3.35
2017-12-11T05:19:48.736Z,4.05
2017-12-11T05:22:17.760Z,6.07
2017-12-11T05:24:46.041Z,5.65
2017-12-11T05:27:14.372Z,5.07
2017-12-11T05:29:44.442Z,4.40
2017-12-11T05:32:12.723Z,7.03
2017-12-11T05:34:40.946Z,5.65
2017-12-11T05:37:10.235Z,9.77
2017-12-11T05:39:38.427Z,6.60
2017-12-11T05:42:06.698Z,5.82
2017-12-11T05:44:34.928Z,8.27
2017-12-11T05:47:13.040Z,7.03
2017-12-11T05:49:41.945Z,7.57
2017-12-11T05:52:10.920Z,10.27
2017-12-11T05:54:39.210Z,11.38
2017-12-11T05:57:08.315Z,10.85
2017-12-11T05:59:36.611Z,10.43
2017-12-11T06:02:05.028Z,8.30
2017-12-11T06:04:34.147Z,10.15
2017-12-11T06:07:03.404Z,12.20
2017-12-11T06:09:31.857Z,13.43
2017-12-11T06:12:00.109Z,9.60
2017-12-11T06:14:28.510Z,15.68
2017-12-11T06:16:57.530Z,15.27
2017-12-11T06:19:26.023Z,12.30
2017-12-11T06:21:54.489Z,13.95
2017-12-11T06:24:22.664Z,13.73
2017-12-11T06:26:54.204Z,15.68
2017-12-11T06:29:22.433Z,10.60
2017-12-11T06:31:50.965Z,11.73
2017-12-11T06:34:19.215Z,12.60
2017-12-11T06:36:48.600Z,15.25
2017-12-11T06:39:19.979Z,13.98
2017-12-11T06:41:48.909Z,11.75
2017-12-11T06:44:18.431Z,20.27
2017-12-11T06:46:48.309Z,18.08
2017-12-11T06:49:17.524Z,20.17
2017-12-11T06:51:56.753Z,15.60
2017-12-11T06:54:25.221Z,15.98
2017-12-11T06:56:55.427Z,17.90
2017-12-11T06:59:24.495Z,16.77
2017-12-11T07:01:52.976Z,15.80
2017-12-11T07:04:21.278Z,16.65
2017-12-11T07:06:50.247Z,13.57
2017-12-11T07:09:18.740Z,13.23
2017-12-11T07:11:47.111Z,12.48
2017-12-11T07:14:15.416Z,14.70
2017-12-11T07:16:43.633Z,11.63
2017-12-11T07:19:11.871Z,8.68
2017-12-11T07:21:40.872Z,12.85
2017-12-11T07:24:09.145Z,14.00
2017-12-11T07:26:38.160Z,13.90
2017-12-11T07:29:06.493Z,14.95
2017-12-11T07:31:34.680Z,8.32
2017-12-11T07:34:03.002Z,7.93
2017-12-11T07:36:31.188Z,6.40
2017-12-11T07:38:59.490Z,8.65
2017-12-11T07:41:28.702Z,12.18
2017-12-11T07:43:57.003Z,8.80
2017-12-11T07:46:25.262Z,7.20
2017-12-11T07:48:53.492Z,8.43
2017-12-11T07:51:21.642Z,7.00
2017-12-11T07:53:49.880Z,9.48
2017-12-11T07:56:18.147Z,10.23
2017-12-11T07:58:47.519Z,11.32
2017-12-11T08:01:15.781Z,12.27
2017-12-11T08:03:44.078Z,11.57
2017-12-11T08:06:12.339Z,9.70
2017-12-11T08:08:40.701Z,15.25
2017-12-11T08:11:08.992Z,13.85
2017-12-11T08:13:37.333Z,13.82
2017-12-11T08:16:06.353Z,8.18
2017-12-11T08:18:34.547Z,9.73
2017-12-11T08:21:03.575Z,11.77
2017-12-11T08:23:31.768Z,12.37
2017-12-11T08:25:59.908Z,13.50
2017-12-11T08:28:28.156Z,11.60
2017-12-11T08:30:56.391Z,10.27
2017-12-11T08:33:24.651Z,9.50
2017-12-11T08:35:52.973Z,8.38
2017-12-11T08:38:21.184Z,8.18
2017-12-11T08:40:49.379Z,10.48
2017-12-11T08:43:17.595Z,7.40
2017-12-11T08:45:45.842Z,6.80
2017-12-11T08:48:14.056Z,8.00
2017-12-11T08:50:43.116Z,7.05
2017-12-11T08:53:12.108Z,6.82
2017-12-11T08:55:40.790Z,7.18
2017-12-11T08:58:10.489Z,9.55
2017-12-11T09:00:47.621Z,14.57
2017-12-11T09:03:15.864Z,11.15
2017-12-11T09:05:45.144Z,9.73
2017-12-11T09:08:13.372Z,14.82
2017-12-11T09:10:41.606Z,15.52
2017-12-11T09:13:09.785Z,10.90
2017-12-11T09:15:38.055Z,11.82
2017-12-11T09:18:06.278Z,17.65
2017-12-11T09:20:36.859Z,18.95
2017-12-11T09:23:05.022Z,10.70
2017-12-11T09:25:34.070Z,12.27
2017-12-11T09:28:02.430Z,7.50
2017-12-11T09:30:30.590Z,10.18
2017-12-11T09:32:59.869Z,17.37
2017-12-11T09:35:28.131Z,8.23
2017-12-11T09:37:56.416Z,10.35
2017-12-11T09:40:24.773Z,10.82
2017-12-11T09:42:53.033Z,11.82
2017-12-11T09:45:22.028Z,9.38
2017-12-11T09:47:51.121Z,11.57
2017-12-11T09:50:19.309Z,8.68
2017-12-11T09:52:48.998Z,12.32
2017-12-11T09:55:17.959Z,16.12
2017-12-11T09:57:47.432Z,12.98
2017-12-11T10:00:15.804Z,13.02
2017-12-11T10:02:44.034Z,19.67
2017-12-11T10:05:12.995Z,24.10
2017-12-11T10:07:41.360Z,15.93
2017-12-11T10:10:09.595Z,10.48
2017-12-11T10:12:37.819Z,12.45
2017-12-11T10:15:06.046Z,9.48
2017-12-11T10:17:34.479Z,9.50
2017-12-11T10:20:02.771Z,9.25
2017-12-11T10:22:30.960Z,9.00
2017-12-11T10:25:00.400Z,10.38
2017-12-11T10:27:28.609Z,12.73
2017-12-11T10:29:56.865Z,9.10
2017-12-11T10:32:25.855Z,11.38
2017-12-11T10:34:54.275Z,20.60
2017-12-11T10:37:22.489Z,11.68
2017-12-11T10:39:51.617Z,11.57
2017-12-11T10:42:20.567Z,11.07
2017-12-11T10:44:48.727Z,10.95
2017-12-11T10:47:16.939Z,10.98
2017-12-11T10:49:45.900Z,13.07
2017-12-11T10:52:14.222Z,11.40
2017-12-11T10:54:42.464Z,14.43
2017-12-11T10:57:11.443Z,13.13
2017-12-11T10:59:39.702Z,13.27
2017-12-11T11:02:07.875Z,14.65
2017-12-11T11:04:36.107Z,12.50
2017-12-11T11:07:04.327Z,10.38
2017-12-11T11:09:32.477Z,13.13
2017-12-11T11:12:00.741Z,12.48
2017-12-11T11:14:29.062Z,11.27
2017-12-11T11:16:57.431Z,13.43
2017-12-11T11:19:27.114Z,13.80
2017-12-11T11:21:59.053Z,12.43
2017-12-11T11:24:27.245Z,16.02
2017-12-11T11:26:58.216Z,14.45
2017-12-11T11:29:26.355Z,17.77
2017-12-11T11:31:55.335Z,13.38
2017-12-11T11:34:24.318Z,19.17
2017-12-11T11:36:53.498Z,14.60
2017-12-11T11:39:31.650Z,15.63
2017-12-11T11:42:00.062Z,13.48
2017-12-11T11:44:28.360Z,12.85
2017-12-11T11:46:57.220Z,10.60
2017-12-11T11:49:26.552Z,8.63
2017-12-11T11:51:54.862Z,11.68
2017-12-11T11:54:23.367Z,20.58
2017-12-11T11:56:51.706Z,9.73
2017-12-11T11:59:19.886Z,7.93
2017-12-11T12:01:49.242Z,8.05
2017-12-11T12:04:17.655Z,10.63
2017-12-11T12:06:53.311Z,8.68
2017-12-11T12:09:38.931Z,8.35
2017-12-11T12:12:11.619Z,5.75
2017-12-11T12:14:53.742Z,7.90
2017-12-11T12:17:33.795Z,5.65
2017-12-11T12:20:12.944Z,5.90
2017-12-11T12:22:43.274Z,7.95
2017-12-11T12:25:12.329Z,8.13
2017-12-11T12:27:44.482Z,10.70
2017-12-11T12:30:13.947Z,9.52
2017-12-11T12:32:42.308Z,7.55
2017-12-11T12:35:11.289Z,7.32
2017-12-11T12:37:40.953Z,7.57
2017-12-11T12:40:10.793Z,6.85
2017-12-11T12:42:39.121Z,9.80
2017-12-11T12:45:07.695Z,12.20
2017-12-11T12:47:46.226Z,9.13
2017-12-11T12:50:15.325Z,8.65
2017-12-11T12:52:53.637Z,8.77
2017-12-11T12:55:22.936Z,14.18
2017-12-11T12:57:51.317Z,10.63
2017-12-11T13:00:19.659Z,14.73
2017-12-11T13:02:47.890Z,12.27
2017-12-11T13:05:24.911Z,8.52
2017-12-11T13:07:54.554Z,10.50
2017-12-11T13:10:23.122Z,9.48
2017-12-11T13:12:55.185Z,8.07
2017-12-11T13:15:37.723Z,6.43
2017-12-11T13:18:09.688Z,29.02
2017-12-11T13:20:37.909Z,8.25
2017-12-11T13:23:06.773Z,42.80
2017-12-11T13:25:35.775Z,31.70
2017-12-11T13:28:04.949Z,24.75
2017-12-11T13:30:33.209Z,9.75
2017-12-11T13:33:01.364Z,6.80
2017-12-11T13:35:29.554Z,6.35
2017-12-11T13:37:57.943Z,5.72
2017-12-11T13:40:26.098Z,14.18
2017-12-11T13:42:54.235Z,8.35
2017-12-11T13:45:22.397Z,8.10
2017-12-11T13:47:50.547Z,8.38
2017-12-11T13:50:18.664Z,9.27
2017-12-11T13:52:47.576Z,13.15
2017-12-11T13:55:15.741Z,14.27
2017-12-11T13:57:44.168Z,15.25
2017-12-11T14:00:12.339Z,20.98
2017-12-11T14:02:41.378Z,26.45
2017-12-11T14:05:10.133Z,21.37
2017-12-11T14:07:38.386Z,11.93
2017-12-11T14:10:06.614Z,15.45
2017-12-11T14:12:34.905Z,14.87
2017-12-11T14:15:03.284Z,14.65
2017-12-11T14:17:31.668Z,102.10
2017-12-11T14:19:59.969Z,49.00
2017-12-11T14:22:29.491Z,17.23
2017-12-11T14:24:57.720Z,14.10
2017-12-11T14:27:29.293Z,14.98
2017-12-11T14:29:58.357Z,16.83
2017-12-11T14:32:26.573Z,16.50
2017-12-11T14:34:54.804Z,14.55
2017-12-11T14:37:33.054Z,13.45
2017-12-11T14:40:02.208Z,13.50
2017-12-11T15:14:11.678Z,18.20
2017-12-11T15:16:52.852Z,61.22
2017-12-11T15:22:19.919Z,238.60
2017-12-11T15:24:53.072Z,51.22
2017-12-11T15:27:26.618Z,16.10
2017-12-11T15:30:00.943Z,10.38
2017-12-11T15:32:31.327Z,13.20
2017-12-11T15:35:01.601Z,76.68
2017-12-11T15:40:10.408Z,13.18
2017-12-11T15:42:49.270Z,9.20
2017-12-11T15:51:53.200Z,14.75
2017-12-11T15:54:26.963Z,12.95
2017-12-11T15:56:57.636Z,13.05
2017-12-11T15:59:26.686Z,13.98
2017-12-11T16:01:57.595Z,14.95
2017-12-11T16:04:28.665Z,19.05
2017-12-11T16:07:10.270Z,19.05
2017-12-11T16:09:40.821Z,18.48
2017-12-11T16:12:19.368Z,20.50
2017-12-11T16:14:52.972Z,21.42
2017-12-11T16:17:39.140Z,22.55
2017-12-11T16:20:10.225Z,22.92
2017-12-11T16:22:40.625Z,26.65
2017-12-11T16:25:24.665Z,35.45
2017-12-11T16:27:55.864Z,32.95
2017-12-11T16:30:29.614Z,41.37
2017-12-11T16:33:02.337Z,40.97
2017-12-11T16:35:31.838Z,28.52
2017-12-11T16:38:11.410Z,31.75
2017-12-11T16:40:41.051Z,29.77
2017-12-11T16:43:12.043Z,24.27
2017-12-11T16:45:50.462Z,22.45
2017-12-11T16:48:24.015Z,24.60
2017-12-11T16:51:15.496Z,23.67
2017-12-11T16:53:46.907Z,53.53
2017-12-11T16:56:16.865Z,68.87
2017-12-11T16:59:05.479Z,30.85
2017-12-11T17:01:35.747Z,31.80
2017-12-11T17:04:06.027Z,24.98
2017-12-11T17:06:38.182Z,23.80
2017-12-11T17:09:09.413Z,23.38
2017-12-11T17:11:40.592Z,27.02
2017-12-11T17:14:19.895Z,28.60
2017-12-11T17:16:49.349Z,25.77
2017-12-11T17:19:20.561Z,32.55
2017-12-11T17:21:54.971Z,32.58
2017-12-11T17:24:24.268Z,36.45
2017-12-11T17:26:58.532Z,34.50
2017-12-11T17:29:50.441Z,35.05
2017-12-11T17:32:20.338Z,40.20
2017-12-11T17:35:01.881Z,39.67
2017-12-11T17:37:31.211Z,39.53
2017-12-11T17:40:06.123Z,39.95
2017-12-11T17:42:36.573Z,54.85
2017-12-11T17:45:06.953Z,42.72
2017-12-11T17:47:47.943Z,38.85
2017-12-11T17:50:17.965Z,38.80
2017-12-11T17:52:51.746Z,33.75
2017-12-11T17:55:21.550Z,29.83
2017-12-11T17:58:00.409Z,36.67
2017-12-11T18:00:32.409Z,62.30
2017-12-11T18:03:04.429Z,48.17
2017-12-11T18:05:34.011Z,29.50
2017-12-11T18:08:13.885Z,38.60
2017-12-11T18:10:52.122Z,38.80
2017-12-11T18:13:22.838Z,38.58
2017-12-11T18:15:54.034Z,35.40
2017-12-11T18:18:26.638Z,31.25
2017-12-11T18:21:01.418Z,30.05
2017-12-11T18:23:34.900Z,30.23
2017-12-11T18:26:08.340Z,40.63
2017-12-11T18:29:03.882Z,36.42
2017-12-11T18:31:33.431Z,32.20
2017-12-11T18:34:03.379Z,30.60
2017-12-11T18:36:33.662Z,32.65
2017-12-11T18:39:12.564Z,32.28
2017-12-11T18:41:41.898Z,37.17
2017-12-11T18:44:23.798Z,32.58
2017-12-11T18:46:53.438Z,31.12
2017-12-11T18:49:21.837Z,34.55
2017-12-11T18:51:51.002Z,36.00
2017-12-11T18:54:30.359Z,44.60
2017-12-11T18:57:09.940Z,33.78
2017-12-11T18:59:48.404Z,34.42
2017-12-11T19:02:18.546Z,29.37
2017-12-11T19:04:48.828Z,38.85
2017-12-11T19:07:25.155Z,30.88
2017-12-11T19:09:56.930Z,60.45
2017-12-11T19:12:28.286Z,34.40
2017-12-11T19:15:07.889Z,28.90
2017-12-11T19:17:36.924Z,34.60
2017-12-11T19:20:06.481Z,35.20
2017-12-11T19:22:35.769Z,33.78
2017-12-11T19:25:05.422Z,29.23
2017-12-11T19:27:35.560Z,40.20
2017-12-11T19:30:05.873Z,37.50
2017-12-11T19:32:57.487Z,36.50
2017-12-11T19:35:34.614Z,36.10
2017-12-11T19:38:04.381Z,45.47
2017-12-11T19:40:34.597Z,37.22
2017-12-11T19:43:03.736Z,35.15
2017-12-11T19:45:32.259Z,39.05
2017-12-11T19:48:00.939Z,36.15
2017-12-11T19:50:31.299Z,41.95
2017-12-11T19:53:04.640Z,38.08
2017-12-11T19:55:36.663Z,35.08
2017-12-11T19:58:07.725Z,39.30
2017-12-11T20:00:37.864Z,33.47
2017-12-11T20:03:16.525Z,40.10
2017-12-11T20:05:48.246Z,38.03
2017-12-11T20:08:27.238Z,33.40
2017-12-11T20:10:57.599Z,35.63
2017-12-11T20:13:28.012Z,31.45
2017-12-11T20:15:58.011Z,33.50
2017-12-11T20:18:28.434Z,25.15
2017-12-11T20:20:58.010Z,32.72
2017-12-11T20:23:29.573Z,31.60
2017-12-11T20:25:58.746Z,28.33
2017-12-11T20:28:37.795Z,30.05
2017-12-11T20:31:06.566Z,27.25
2017-12-11T20:33:36.177Z,32.25
2017-12-11T20:36:05.830Z,28.75
2017-12-11T20:38:44.149Z,28.87
2017-12-11T20:41:13.984Z,33.97
2017-12-11T20:43:43.390Z,28.80
2017-12-11T20:46:13.763Z,29.92
2017-12-11T20:48:43.022Z,33.33
2017-12-11T20:51:11.734Z,28.10
2017-12-11T20:53:41.345Z,30.20
2017-12-11T20:56:10.286Z,23.20
2017-12-11T20:58:39.005Z,27.85
2017-12-11T21:01:09.070Z,25.88
2017-12-11T21:03:46.587Z,23.15
2017-12-11T21:06:25.700Z,27.33
2017-12-11T21:09:14.848Z,26.80
2017-12-11T21:11:44.000Z,25.65
2017-12-11T21:14:13.050Z,32.17
2017-12-11T21:16:44.101Z,22.13
2017-12-11T21:19:15.003Z,24.20
2017-12-11T21:21:44.917Z,24.08
2017-12-11T21:24:13.406Z,22.02
2017-12-11T21:26:54.323Z,17.73
2017-12-11T21:29:24.627Z,17.92
2017-12-11T21:31:54.300Z,20.05
2017-12-11T21:34:23.728Z,16.20
2017-12-11T21:36:53.440Z,14.70
2017-12-11T21:53:05.217Z,14.25
2017-12-11T21:55:36.429Z,12.43
2017-12-11T21:58:16.077Z,11.77
2017-12-11T22:00:45.609Z,10.65
2017-12-11T22:03:13.929Z,11.75
2017-12-11T22:05:47.572Z,9.90
2017-12-11T22:08:27.612Z,11.85
2017-12-11T22:11:06.756Z,9.63
2017-12-11T22:13:36.732Z,10.23
2017-12-11T22:16:11.784Z,17.45
2017-12-11T22:18:40.157Z,13.52
2017-12-11T22:21:11.008Z,12.00
2017-12-11T22:23:43.019Z,13.13
2017-12-11T22:26:12.408Z,11.05
2017-12-11T22:28:42.481Z,8.60
2017-12-11T22:31:15.719Z,10.00
2017-12-11T22:33:45.611Z,9.70
2017-12-11T22:36:17.241Z,11.55
2017-12-11T22:38:46.434Z,7.18
2017-12-11T22:41:18.673Z,8.43
2017-12-11T22:43:48.088Z,7.75
2017-12-11T22:46:18.506Z,7.00
2017-12-11T22:48:49.395Z,7.93
2017-12-11T22:51:18.687Z,9.73
2017-12-11T22:53:48.857Z,7.80
2017-12-11T22:56:17.340Z,6.22
2017-12-11T22:58:56.330Z,6.68
2017-12-11T23:01:26.785Z,6.15
2017-12-11T23:03:54.990Z,5.32
2017-12-11T23:06:23.246Z,29.80
2017-12-11T23:08:51.410Z,10.45
2017-12-11T23:11:19.690Z,9.85
2017-12-11T23:13:47.926Z,8.25
2017-12-11T23:16:16.936Z,6.45
2017-12-11T23:18:49.277Z,5.05
2017-12-11T23:21:17.565Z,5.15
2017-12-11T23:23:50.026Z,6.32
2017-12-11T23:26:20.048Z,5.90
2017-12-11T23:28:54.973Z,5.70
2017-12-11T23:31:24.451Z,4.70
2017-12-11T23:33:57.591Z,4.70
2017-12-11T23:36:31.636Z,4.82
2017-12-11T23:39:02.876Z,4.68
2017-12-11T23:41:31.221Z,5.32
2017-12-11T23:44:15.022Z,3.97
2017-12-11T23:46:44.052Z,4.12
2017-12-11T23:49:12.838Z,7.72
2017-12-11T23:51:41.897Z,5.53
2017-12-11T23:54:27.827Z,7.12
2017-12-11T23:57:01.632Z,4.85
2017-12-11T23:59:33.832Z,4.68
